<?xml version="1.0" encoding="UTF-8"?>
<gpx xmlns="http://www.topografix.com/GPX/1/1" creator="Bikeplanner http://www.bkeplanner.com " version="1.1" xmlns:xsi="http://www.w3.org/2001/XMLSchema-instance" xsi:schemaLocation="http://www.topografix.com/GPX/1/1 http://www.topografix.com/GPX/1/1/gpx.xsd">
<metadata>
<name>Szklarska</name>
<copyright author='bikeplanner.com'/>
<link href='http://www.bikeplanner.com'>
<text>Szklarska on BikePlanner.com</text>
</link>
<time>2010-12-29T22:46:44Z</time>
</metadata>
<trk>
<name>Szklarska</name>
<link href='http://www.bikeplanner.com' />
<trkseg><trkpt lat="50.7381300" lon="15.73881">
<ele>1470</ele>
<time>2010-12-29T22:46:44Z</time>
</trkpt>
<trkpt lat="50.73626" lon="15.74038">
<ele>1583</ele>
<time>2010-12-29T22:47:12Z</time>
</trkpt>
<trkpt lat="50.73642" lon="15.74036">
<ele>1580</ele>
<time>2010-12-29T22:47:14Z</time>
</trkpt>
<trkpt lat="50.73642" lon="15.74036">
<ele>1580</ele>
<time>2010-12-29T22:47:14Z</time>
</trkpt>
<trkpt lat="50.73649" lon="15.74063">
<ele>1576</ele>
<time>2010-12-29T22:47:16Z</time>
</trkpt>
<trkpt lat="50.73649" lon="15.74063">
<ele>1576</ele>
<time>2010-12-29T22:47:16Z</time>
</trkpt>
<trkpt lat="50.73634" lon="15.74107">
<ele>1574</ele>
<time>2010-12-29T22:47:21Z</time>
</trkpt>
<trkpt lat="50.73634" lon="15.74107">
<ele>1574</ele>
<time>2010-12-29T22:47:21Z</time>
</trkpt>
<trkpt lat="50.73618" lon="15.74123">
<ele>1574</ele>
<time>2010-12-29T22:47:23Z</time>
</trkpt>
<trkpt lat="50.73618" lon="15.74123">
<ele>1574</ele>
<time>2010-12-29T22:47:23Z</time>
</trkpt>
<trkpt lat="50.7353" lon="15.74188">
<ele>1558</ele>
<time>2010-12-29T22:47:36Z</time>
</trkpt>
<trkpt lat="50.7353" lon="15.74188">
<ele>1558</ele>
<time>2010-12-29T22:47:36Z</time>
</trkpt>
<trkpt lat="50.73522" lon="15.74196">
<ele>1556</ele>
<time>2010-12-29T22:47:37Z</time>
</trkpt>
<trkpt lat="50.73522" lon="15.74196">
<ele>1556</ele>
<time>2010-12-29T22:47:37Z</time>
</trkpt>
<trkpt lat="50.73522" lon="15.74213">
<ele>1553</ele>
<time>2010-12-29T22:47:39Z</time>
</trkpt>
<trkpt lat="50.73522" lon="15.74213">
<ele>1553</ele>
<time>2010-12-29T22:47:39Z</time>
</trkpt>
<trkpt lat="50.73576" lon="15.74257">
<ele>1549</ele>
<time>2010-12-29T22:47:47Z</time>
</trkpt>
<trkpt lat="50.73576" lon="15.74257">
<ele>1549</ele>
<time>2010-12-29T22:47:47Z</time>
</trkpt>
<trkpt lat="50.73707" lon="15.74334">
<ele>1529</ele>
<time>2010-12-29T22:48:06Z</time>
</trkpt>
<trkpt lat="50.73707" lon="15.74334">
<ele>1529</ele>
<time>2010-12-29T22:48:06Z</time>
</trkpt>
<trkpt lat="50.73819" lon="15.74335">
<ele>1513</ele>
<time>2010-12-29T22:48:20Z</time>
</trkpt>
<trkpt lat="50.73819" lon="15.7434000">
<ele>1512</ele>
<time>2010-12-29T22:48:21Z</time>
</trkpt>
<trkpt lat="50.7386400" lon="15.7431400">
<ele>1501</ele>
<time>2010-12-29T22:48:27Z</time>
</trkpt>
<trkpt lat="50.7386400" lon="15.7431400">
<ele>1501</ele>
<time>2010-12-29T22:48:27Z</time>
</trkpt>
<trkpt lat="50.73881" lon="15.74281">
<ele>1496</ele>
<time>2010-12-29T22:48:31Z</time>
</trkpt>
<trkpt lat="50.7390000" lon="15.7421">
<ele>1490</ele>
<time>2010-12-29T22:48:37Z</time>
</trkpt>
<trkpt lat="50.73906" lon="15.7416700">
<ele>1484</ele>
<time>2010-12-29T22:48:41Z</time>
</trkpt>
<trkpt lat="50.73904" lon="15.7411900">
<ele>1479</ele>
<time>2010-12-29T22:48:45Z</time>
</trkpt>
<trkpt lat="50.7389400" lon="15.7408100">
<ele>1478</ele>
<time>2010-12-29T22:48:49Z</time>
</trkpt>
<trkpt lat="50.7381300" lon="15.73881">
<ele>1470</ele>
<time>2010-12-29T22:49:09Z</time>
</trkpt>
<trkpt lat="50.7373200" lon="15.7343800">
<ele>1434</ele>
<time>2010-12-29T22:49:48Z</time>
</trkpt>
<trkpt lat="50.7372600" lon="15.7336800">
<ele>1428</ele>
<time>2010-12-29T22:49:54Z</time>
</trkpt>
<trkpt lat="50.73747" lon="15.7328000">
<ele>1414</ele>
<time>2010-12-29T22:50:02Z</time>
</trkpt>
<trkpt lat="50.7382200" lon="15.7311500">
<ele>1397</ele>
<time>2010-12-29T22:50:19Z</time>
</trkpt>
<trkpt lat="50.73872" lon="15.7304700">
<ele>1386</ele>
<time>2010-12-29T22:50:27Z</time>
</trkpt>
<trkpt lat="50.7392300" lon="15.7291400">
<ele>1386</ele>
<time>2010-12-29T22:50:41Z</time>
</trkpt>
<trkpt lat="50.7392300" lon="15.7291400">
<ele>1386</ele>
<time>2010-12-29T22:50:41Z</time>
</trkpt>
<trkpt lat="50.73953" lon="15.7283400">
<ele>1388</ele>
<time>2010-12-29T22:50:48Z</time>
</trkpt>
<trkpt lat="50.7397000" lon="15.72765">
<ele>1390</ele>
<time>2010-12-29T22:50:55Z</time>
</trkpt>
<trkpt lat="50.7398" lon="15.7271100">
<ele>1390</ele>
<time>2010-12-29T22:50:59Z</time>
</trkpt>
<trkpt lat="50.73984" lon="15.7260300">
<ele>1388</ele>
<time>2010-12-29T22:51:09Z</time>
</trkpt>
<trkpt lat="50.7405000" lon="15.7240100">
<ele>1385</ele>
<time>2010-12-29T22:51:28Z</time>
</trkpt>
<trkpt lat="50.7408800" lon="15.7215400">
<ele>1399</ele>
<time>2010-12-29T22:51:49Z</time>
</trkpt>
<trkpt lat="50.7412400" lon="15.7182300">
<ele>1421</ele>
<time>2010-12-29T22:52:18Z</time>
</trkpt>
<trkpt lat="50.7416200" lon="15.7154400">
<ele>1429</ele>
<time>2010-12-29T22:52:42Z</time>
</trkpt>
<trkpt lat="50.7420100" lon="15.7132300">
<ele>1434</ele>
<time>2010-12-29T22:53:01Z</time>
</trkpt>
<trkpt lat="50.74197" lon="15.7125300">
<ele>1435</ele>
<time>2010-12-29T22:53:07Z</time>
</trkpt>
<trkpt lat="50.74148" lon="15.7101800">
<ele>1435</ele>
<time>2010-12-29T22:53:28Z</time>
</trkpt>
<trkpt lat="50.7412700" lon="15.7088900">
<ele>1433</ele>
<time>2010-12-29T22:53:39Z</time>
</trkpt>
<trkpt lat="50.7411" lon="15.70747">
<ele>1430</ele>
<time>2010-12-29T22:53:51Z</time>
</trkpt>
<trkpt lat="50.7410600" lon="15.7065900">
<ele>1427</ele>
<time>2010-12-29T22:53:59Z</time>
</trkpt>
<trkpt lat="50.7410600" lon="15.7065900">
<ele>1427</ele>
<time>2010-12-29T22:53:59Z</time>
</trkpt>
<trkpt lat="50.7407900" lon="15.7051900">
<ele>1425</ele>
<time>2010-12-29T22:54:11Z</time>
</trkpt>
<trkpt lat="50.7407300" lon="15.7047">
<ele>1425</ele>
<time>2010-12-29T22:54:15Z</time>
</trkpt>
<trkpt lat="50.74074" lon="15.70424">
<ele>1424</ele>
<time>2010-12-29T22:54:19Z</time>
</trkpt>
<trkpt lat="50.74137" lon="15.7016300">
<ele>1411</ele>
<time>2010-12-29T22:54:43Z</time>
</trkpt>
<trkpt lat="50.7414400" lon="15.7007300">
<ele>1410</ele>
<time>2010-12-29T22:54:51Z</time>
</trkpt>
<trkpt lat="50.74157" lon="15.7001400">
<ele>1409</ele>
<time>2010-12-29T22:54:56Z</time>
</trkpt>
<trkpt lat="50.74181" lon="15.6995700">
<ele>1407</ele>
<time>2010-12-29T22:55:02Z</time>
</trkpt>
<trkpt lat="50.74257" lon="15.6982100">
<ele>1402</ele>
<time>2010-12-29T22:55:17Z</time>
</trkpt>
<trkpt lat="50.7430500" lon="15.6976800">
<ele>1398</ele>
<time>2010-12-29T22:55:25Z</time>
</trkpt>
<trkpt lat="50.7436800" lon="15.6967500">
<ele>1399</ele>
<time>2010-12-29T22:55:36Z</time>
</trkpt>
<trkpt lat="50.74425" lon="15.69631">
<ele>1397</ele>
<time>2010-12-29T22:55:45Z</time>
</trkpt>
<trkpt lat="50.7447400" lon="15.69616">
<ele>1394</ele>
<time>2010-12-29T22:55:51Z</time>
</trkpt>
<trkpt lat="50.7450200" lon="15.69588">
<ele>1393</ele>
<time>2010-12-29T22:55:56Z</time>
</trkpt>
<trkpt lat="50.74546" lon="15.6953000">
<ele>1393</ele>
<time>2010-12-29T22:56:03Z</time>
</trkpt>
<trkpt lat="50.74609" lon="15.6949800">
<ele>1388</ele>
<time>2010-12-29T22:56:12Z</time>
</trkpt>
<trkpt lat="50.74629" lon="15.69471">
<ele>1388</ele>
<time>2010-12-29T22:56:16Z</time>
</trkpt>
<trkpt lat="50.7465500" lon="15.6945400">
<ele>1387</ele>
<time>2010-12-29T22:56:19Z</time>
</trkpt>
<trkpt lat="50.74698" lon="15.6943100">
<ele>1387</ele>
<time>2010-12-29T22:56:26Z</time>
</trkpt>
<trkpt lat="50.7471" lon="15.69429">
<ele>1387</ele>
<time>2010-12-29T22:56:27Z</time>
</trkpt>
<trkpt lat="50.7471" lon="15.69429">
<ele>1387</ele>
<time>2010-12-29T22:56:27Z</time>
</trkpt>
<trkpt lat="50.74775" lon="15.69471">
<ele>1384</ele>
<time>2010-12-29T22:56:37Z</time>
</trkpt>
<trkpt lat="50.7487400" lon="15.6954700">
<ele>1373</ele>
<time>2010-12-29T22:56:51Z</time>
</trkpt>
<trkpt lat="50.7492400" lon="15.6957300">
<ele>1366</ele>
<time>2010-12-29T22:56:58Z</time>
</trkpt>
<trkpt lat="50.7501800" lon="15.69565">
<ele>1375</ele>
<time>2010-12-29T22:57:11Z</time>
</trkpt>
<trkpt lat="50.75066" lon="15.6955300">
<ele>1376</ele>
<time>2010-12-29T22:57:17Z</time>
</trkpt>
<trkpt lat="50.7510000" lon="15.6952900">
<ele>1381</ele>
<time>2010-12-29T22:57:22Z</time>
</trkpt>
<trkpt lat="50.75117" lon="15.6951100">
<ele>1384</ele>
<time>2010-12-29T22:57:25Z</time>
</trkpt>
<trkpt lat="50.7514500" lon="15.69495">
<ele>1387</ele>
<time>2010-12-29T22:57:29Z</time>
</trkpt>
<trkpt lat="50.75157" lon="15.69494">
<ele>1387</ele>
<time>2010-12-29T22:57:31Z</time>
</trkpt>
<trkpt lat="50.7521200" lon="15.69508">
<ele>1380</ele>
<time>2010-12-29T22:57:38Z</time>
</trkpt>
<trkpt lat="50.7521200" lon="15.69508">
<ele>1380</ele>
<time>2010-12-29T22:57:38Z</time>
</trkpt>
<trkpt lat="50.75238" lon="15.6950000">
<ele>1382</ele>
<time>2010-12-29T22:57:42Z</time>
</trkpt>
<trkpt lat="50.7530800" lon="15.69457">
<ele>1391</ele>
<time>2010-12-29T22:57:52Z</time>
</trkpt>
<trkpt lat="50.75363" lon="15.6940200">
<ele>1394</ele>
<time>2010-12-29T22:58:00Z</time>
</trkpt>
<trkpt lat="50.7548800" lon="15.6930900">
<ele>1393</ele>
<time>2010-12-29T22:58:19Z</time>
</trkpt>
<trkpt lat="50.7552100" lon="15.6926600">
<ele>1388</ele>
<time>2010-12-29T22:58:24Z</time>
</trkpt>
<trkpt lat="50.7554100" lon="15.6923000">
<ele>1388</ele>
<time>2010-12-29T22:58:28Z</time>
</trkpt>
<trkpt lat="50.7557000" lon="15.6912500">
<ele>1393</ele>
<time>2010-12-29T22:58:38Z</time>
</trkpt>
<trkpt lat="50.7558" lon="15.6898600">
<ele>1410</ele>
<time>2010-12-29T22:58:50Z</time>
</trkpt>
<trkpt lat="50.7558600" lon="15.68959">
<ele>1411</ele>
<time>2010-12-29T22:58:52Z</time>
</trkpt>
<trkpt lat="50.7569300" lon="15.6875900">
<ele>1407</ele>
<time>2010-12-29T22:59:14Z</time>
</trkpt>
<trkpt lat="50.75693" lon="15.68759">
<ele>1407</ele>
<time>2010-12-29T22:59:14Z</time>
</trkpt>
<trkpt lat="50.75765" lon="15.68658">
<ele>1406</ele>
<time>2010-12-29T22:59:27Z</time>
</trkpt>
<trkpt lat="50.75765" lon="15.68658">
<ele>1406</ele>
<time>2010-12-29T22:59:27Z</time>
</trkpt>
<trkpt lat="50.75852" lon="15.68547">
<ele>1409</ele>
<time>2010-12-29T22:59:42Z</time>
</trkpt>
<trkpt lat="50.75852" lon="15.68547">
<ele>1409</ele>
<time>2010-12-29T22:59:42Z</time>
</trkpt>
<trkpt lat="50.75921" lon="15.68444">
<ele>1413</ele>
<time>2010-12-29T22:59:55Z</time>
</trkpt>
<trkpt lat="50.75921" lon="15.68444">
<ele>1413</ele>
<time>2010-12-29T22:59:55Z</time>
</trkpt>
<trkpt lat="50.75956" lon="15.68326">
<ele>1416</ele>
<time>2010-12-29T23:00:06Z</time>
</trkpt>
<trkpt lat="50.75956" lon="15.68326">
<ele>1416</ele>
<time>2010-12-29T23:00:06Z</time>
</trkpt>
<trkpt lat="50.75956" lon="15.68188">
<ele>1417</ele>
<time>2010-12-29T23:00:17Z</time>
</trkpt>
<trkpt lat="50.75956" lon="15.68188">
<ele>1417</ele>
<time>2010-12-29T23:00:17Z</time>
</trkpt>
<trkpt lat="50.75944" lon="15.68051">
<ele>1416</ele>
<time>2010-12-29T23:00:29Z</time>
</trkpt>
<trkpt lat="50.75944" lon="15.68051">
<ele>1416</ele>
<time>2010-12-29T23:00:29Z</time>
</trkpt>
<trkpt lat="50.75907" lon="15.67836">
<ele>1416</ele>
<time>2010-12-29T23:00:48Z</time>
</trkpt>
<trkpt lat="50.75907" lon="15.67836">
<ele>1416</ele>
<time>2010-12-29T23:00:48Z</time>
</trkpt>
<trkpt lat="50.75892" lon="15.67729">
<ele>1411</ele>
<time>2010-12-29T23:00:57Z</time>
</trkpt>
<trkpt lat="50.75892" lon="15.67729">
<ele>1411</ele>
<time>2010-12-29T23:00:57Z</time>
</trkpt>
<trkpt lat="50.75846" lon="15.67577">
<ele>1417</ele>
<time>2010-12-29T23:01:11Z</time>
</trkpt>
<trkpt lat="50.75846" lon="15.67577">
<ele>1417</ele>
<time>2010-12-29T23:01:11Z</time>
</trkpt>
<trkpt lat="50.75854" lon="15.67298">
<ele>1409</ele>
<time>2010-12-29T23:01:35Z</time>
</trkpt>
<trkpt lat="50.75854" lon="15.67298">
<ele>1409</ele>
<time>2010-12-29T23:01:35Z</time>
</trkpt>
<trkpt lat="50.75898" lon="15.67057">
<ele>1395</ele>
<time>2010-12-29T23:01:56Z</time>
</trkpt>
<trkpt lat="50.75898" lon="15.67057">
<ele>1395</ele>
<time>2010-12-29T23:01:56Z</time>
</trkpt>
<trkpt lat="50.75945" lon="15.66763">
<ele>1386</ele>
<time>2010-12-29T23:02:22Z</time>
</trkpt>
<trkpt lat="50.75945" lon="15.66763">
<ele>1386</ele>
<time>2010-12-29T23:02:22Z</time>
</trkpt>
<trkpt lat="50.75992" lon="15.66521">
<ele>1376</ele>
<time>2010-12-29T23:02:43Z</time>
</trkpt>
<trkpt lat="50.75992" lon="15.66521">
<ele>1376</ele>
<time>2010-12-29T23:02:43Z</time>
</trkpt>
<trkpt lat="50.76034" lon="15.66178">
<ele>1368</ele>
<time>2010-12-29T23:03:13Z</time>
</trkpt>
<trkpt lat="50.76034" lon="15.66178">
<ele>1368</ele>
<time>2010-12-29T23:03:13Z</time>
</trkpt>
<trkpt lat="50.76054" lon="15.65952">
<ele>1374</ele>
<time>2010-12-29T23:03:32Z</time>
</trkpt>
<trkpt lat="50.76054" lon="15.65952">
<ele>1374</ele>
<time>2010-12-29T23:03:32Z</time>
</trkpt>
<trkpt lat="50.76068" lon="15.65764">
<ele>1371</ele>
<time>2010-12-29T23:03:48Z</time>
</trkpt>
<trkpt lat="50.76068" lon="15.65764">
<ele>1371</ele>
<time>2010-12-29T23:03:48Z</time>
</trkpt>
<trkpt lat="50.76073" lon="15.65414">
<ele>1353</ele>
<time>2010-12-29T23:04:17Z</time>
</trkpt>
<trkpt lat="50.76073" lon="15.65414">
<ele>1353</ele>
<time>2010-12-29T23:04:17Z</time>
</trkpt>
<trkpt lat="50.7615" lon="15.65066">
<ele>1340</ele>
<time>2010-12-29T23:04:49Z</time>
</trkpt>
<trkpt lat="50.7615" lon="15.65066">
<ele>1340</ele>
<time>2010-12-29T23:04:49Z</time>
</trkpt>
<trkpt lat="50.76154" lon="15.64985">
<ele>1344</ele>
<time>2010-12-29T23:04:55Z</time>
</trkpt>
<trkpt lat="50.76154" lon="15.64985">
<ele>1344</ele>
<time>2010-12-29T23:04:55Z</time>
</trkpt>
<trkpt lat="50.76256" lon="15.64665">
<ele>1330</ele>
<time>2010-12-29T23:05:26Z</time>
</trkpt>
<trkpt lat="50.76256" lon="15.64665">
<ele>1330</ele>
<time>2010-12-29T23:05:26Z</time>
</trkpt>
<trkpt lat="50.76256" lon="15.64487">
<ele>1316</ele>
<time>2010-12-29T23:05:41Z</time>
</trkpt>
<trkpt lat="50.76256" lon="15.64487">
<ele>1316</ele>
<time>2010-12-29T23:05:41Z</time>
</trkpt>
<trkpt lat="50.76241" lon="15.64135">
<ele>1275</ele>
<time>2010-12-29T23:06:10Z</time>
</trkpt>
<trkpt lat="50.76241" lon="15.64135">
<ele>1275</ele>
<time>2010-12-29T23:06:10Z</time>
</trkpt>
<trkpt lat="50.76228" lon="15.64081">
<ele>1267</ele>
<time>2010-12-29T23:06:15Z</time>
</trkpt>
<trkpt lat="50.76228" lon="15.64081">
<ele>1267</ele>
<time>2010-12-29T23:06:15Z</time>
</trkpt>
<trkpt lat="50.76248" lon="15.63961">
<ele>1244</ele>
<time>2010-12-29T23:06:26Z</time>
</trkpt>
<trkpt lat="50.76248" lon="15.63961">
<ele>1244</ele>
<time>2010-12-29T23:06:26Z</time>
</trkpt>
<trkpt lat="50.76258" lon="15.63877">
<ele>1232</ele>
<time>2010-12-29T23:06:33Z</time>
</trkpt>
<trkpt lat="50.76258" lon="15.63877">
<ele>1232</ele>
<time>2010-12-29T23:06:33Z</time>
</trkpt>
<trkpt lat="50.76249" lon="15.63607">
<ele>1205</ele>
<time>2010-12-29T23:06:56Z</time>
</trkpt>
<trkpt lat="50.76249" lon="15.63607">
<ele>1205</ele>
<time>2010-12-29T23:06:56Z</time>
</trkpt>
<trkpt lat="50.76272" lon="15.63413">
<ele>1197</ele>
<time>2010-12-29T23:07:12Z</time>
</trkpt>
<trkpt lat="50.76272" lon="15.63413">
<ele>1197</ele>
<time>2010-12-29T23:07:12Z</time>
</trkpt>
<trkpt lat="50.76348" lon="15.63075">
<ele>1204</ele>
<time>2010-12-29T23:07:43Z</time>
</trkpt>
<trkpt lat="50.76348" lon="15.63075">
<ele>1204</ele>
<time>2010-12-29T23:07:43Z</time>
</trkpt>
<trkpt lat="50.76415" lon="15.62824">
<ele>1210</ele>
<time>2010-12-29T23:08:06Z</time>
</trkpt>
<trkpt lat="50.76415" lon="15.62824">
<ele>1210</ele>
<time>2010-12-29T23:08:06Z</time>
</trkpt>
<trkpt lat="50.76451" lon="15.62764">
<ele>1209</ele>
<time>2010-12-29T23:08:13Z</time>
</trkpt>
<trkpt lat="50.76451" lon="15.62764">
<ele>1209</ele>
<time>2010-12-29T23:08:13Z</time>
</trkpt>
<trkpt lat="50.76485" lon="15.62489">
<ele>1198</ele>
<time>2010-12-29T23:08:36Z</time>
</trkpt>
<trkpt lat="50.76519" lon="15.62214">
<ele>1189</ele>
<time>2010-12-29T23:09:00Z</time>
</trkpt>
<trkpt lat="50.76519" lon="15.62214">
<ele>1189</ele>
<time>2010-12-29T23:09:00Z</time>
</trkpt>
<trkpt lat="50.76604" lon="15.621">
<ele>1180</ele>
<time>2010-12-29T23:09:15Z</time>
</trkpt>
<trkpt lat="50.76604" lon="15.621">
<ele>1180</ele>
<time>2010-12-29T23:09:15Z</time>
</trkpt>
<trkpt lat="50.7668" lon="15.6205">
<ele>1177</ele>
<time>2010-12-29T23:09:26Z</time>
</trkpt>
<trkpt lat="50.7668" lon="15.6205">
<ele>1177</ele>
<time>2010-12-29T23:09:26Z</time>
</trkpt>
<trkpt lat="50.76711" lon="15.6206">
<ele>1177</ele>
<time>2010-12-29T23:09:30Z</time>
</trkpt>
<trkpt lat="50.76711" lon="15.6206000">
<ele>1177</ele>
<time>2010-12-29T23:09:30Z</time>
</trkpt>
<trkpt lat="50.7681900" lon="15.6200000">
<ele>1180</ele>
<time>2010-12-29T23:09:45Z</time>
</trkpt>
<trkpt lat="50.7697800" lon="15.61884">
<ele>1195</ele>
<time>2010-12-29T23:10:09Z</time>
</trkpt>
<trkpt lat="50.7697800" lon="15.61884">
<ele>1195</ele>
<time>2010-12-29T23:10:09Z</time>
</trkpt>
<trkpt lat="50.77217" lon="15.61686">
<ele>1238</ele>
<time>2010-12-29T23:10:45Z</time>
</trkpt>
<trkpt lat="50.7724000" lon="15.6166100">
<ele>1242</ele>
<time>2010-12-29T23:10:48Z</time>
</trkpt>
<trkpt lat="50.7724000" lon="15.6166100">
<ele>1242</ele>
<time>2010-12-29T23:10:48Z</time>
</trkpt>
<trkpt lat="50.7730100" lon="15.6151600">
<ele>1258</ele>
<time>2010-12-29T23:11:03Z</time>
</trkpt>
<trkpt lat="50.7729900" lon="15.6150200">
<ele>1259</ele>
<time>2010-12-29T23:11:04Z</time>
</trkpt>
<trkpt lat="50.77299" lon="15.61502">
<ele>1259</ele>
<time>2010-12-29T23:11:04Z</time>
</trkpt>
<trkpt lat="50.77346" lon="15.61344">
<ele>1280</ele>
<time>2010-12-29T23:11:19Z</time>
</trkpt>
<trkpt lat="50.77346" lon="15.61344">
<ele>1280</ele>
<time>2010-12-29T23:11:19Z</time>
</trkpt>
<trkpt lat="50.77407" lon="15.6115">
<ele>1301</ele>
<time>2010-12-29T23:11:37Z</time>
</trkpt>
<trkpt lat="50.77407" lon="15.6115">
<ele>1301</ele>
<time>2010-12-29T23:11:37Z</time>
</trkpt>
<trkpt lat="50.77458" lon="15.60903">
<ele>1321</ele>
<time>2010-12-29T23:11:59Z</time>
</trkpt>
<trkpt lat="50.77458" lon="15.60903">
<ele>1321</ele>
<time>2010-12-29T23:11:59Z</time>
</trkpt>
<trkpt lat="50.77555" lon="15.6063">
<ele>1351</ele>
<time>2010-12-29T23:12:26Z</time>
</trkpt>
<trkpt lat="50.77555" lon="15.6063">
<ele>1351</ele>
<time>2010-12-29T23:12:26Z</time>
</trkpt>
<trkpt lat="50.77538" lon="15.60555">
<ele>1360</ele>
<time>2010-12-29T23:12:32Z</time>
</trkpt>
<trkpt lat="50.77538" lon="15.60555">
<ele>1360</ele>
<time>2010-12-29T23:12:32Z</time>
</trkpt>
<trkpt lat="50.77561" lon="15.60514">
<ele>1366</ele>
<time>2010-12-29T23:12:37Z</time>
</trkpt>
<trkpt lat="50.77561" lon="15.60514">
<ele>1366</ele>
<time>2010-12-29T23:12:37Z</time>
</trkpt>
<trkpt lat="50.77575" lon="15.60474">
<ele>1371</ele>
<time>2010-12-29T23:12:41Z</time>
</trkpt>
<trkpt lat="50.77575" lon="15.60474">
<ele>1371</ele>
<time>2010-12-29T23:12:41Z</time>
</trkpt>
<trkpt lat="50.77586" lon="15.60439">
<ele>1376</ele>
<time>2010-12-29T23:12:44Z</time>
</trkpt>
<trkpt lat="50.77586" lon="15.60439">
<ele>1376</ele>
<time>2010-12-29T23:12:44Z</time>
</trkpt>
<trkpt lat="50.77576" lon="15.60388">
<ele>1381</ele>
<time>2010-12-29T23:12:49Z</time>
</trkpt>
<trkpt lat="50.77576" lon="15.60388">
<ele>1381</ele>
<time>2010-12-29T23:12:49Z</time>
</trkpt>
<trkpt lat="50.77581" lon="15.60277">
<ele>1391</ele>
<time>2010-12-29T23:12:58Z</time>
</trkpt>
<trkpt lat="50.77581" lon="15.60277">
<ele>1391</ele>
<time>2010-12-29T23:12:58Z</time>
</trkpt>
<trkpt lat="50.77622" lon="15.60263">
<ele>1394</ele>
<time>2010-12-29T23:13:04Z</time>
</trkpt>
<trkpt lat="50.77622" lon="15.60263">
<ele>1394</ele>
<time>2010-12-29T23:13:04Z</time>
</trkpt>
<trkpt lat="50.77666" lon="15.60205">
<ele>1398</ele>
<time>2010-12-29T23:13:11Z</time>
</trkpt>
<trkpt lat="50.77666" lon="15.60205">
<ele>1398</ele>
<time>2010-12-29T23:13:11Z</time>
</trkpt>
<trkpt lat="50.77684" lon="15.60138">
<ele>1400</ele>
<time>2010-12-29T23:13:18Z</time>
</trkpt>
<trkpt lat="50.77684" lon="15.60138">
<ele>1400</ele>
<time>2010-12-29T23:13:18Z</time>
</trkpt>
<trkpt lat="50.77701" lon="15.59719">
<ele>1394</ele>
<time>2010-12-29T23:13:53Z</time>
</trkpt>
<trkpt lat="50.77701" lon="15.59719">
<ele>1394</ele>
<time>2010-12-29T23:13:53Z</time>
</trkpt>
<trkpt lat="50.7769" lon="15.59548">
<ele>1399</ele>
<time>2010-12-29T23:14:07Z</time>
</trkpt>
<trkpt lat="50.7769" lon="15.59548">
<ele>1399</ele>
<time>2010-12-29T23:14:07Z</time>
</trkpt>
<trkpt lat="50.77673" lon="15.59474">
<ele>1401</ele>
<time>2010-12-29T23:14:14Z</time>
</trkpt>
<trkpt lat="50.77673" lon="15.59474">
<ele>1401</ele>
<time>2010-12-29T23:14:14Z</time>
</trkpt>
<trkpt lat="50.77679" lon="15.59407">
<ele>1403</ele>
<time>2010-12-29T23:14:20Z</time>
</trkpt>
<trkpt lat="50.77679" lon="15.59407">
<ele>1403</ele>
<time>2010-12-29T23:14:20Z</time>
</trkpt>
<trkpt lat="50.77695" lon="15.59374">
<ele>1404</ele>
<time>2010-12-29T23:14:23Z</time>
</trkpt>
<trkpt lat="50.77695" lon="15.59374">
<ele>1404</ele>
<time>2010-12-29T23:14:23Z</time>
</trkpt>
<trkpt lat="50.77694" lon="15.59171">
<ele>1399</ele>
<time>2010-12-29T23:14:40Z</time>
</trkpt>
<trkpt lat="50.77694" lon="15.59171">
<ele>1399</ele>
<time>2010-12-29T23:14:40Z</time>
</trkpt>
<trkpt lat="50.77721" lon="15.59076">
<ele>1398</ele>
<time>2010-12-29T23:14:49Z</time>
</trkpt>
<trkpt lat="50.77721" lon="15.59076">
<ele>1398</ele>
<time>2010-12-29T23:14:49Z</time>
</trkpt>
<trkpt lat="50.77823" lon="15.58821">
<ele>1377</ele>
<time>2010-12-29T23:15:15Z</time>
</trkpt>
<trkpt lat="50.77823" lon="15.58821">
<ele>1377</ele>
<time>2010-12-29T23:15:15Z</time>
</trkpt>
<trkpt lat="50.77867" lon="15.58542">
<ele>1350</ele>
<time>2010-12-29T23:15:39Z</time>
</trkpt>
<trkpt lat="50.77867" lon="15.58542">
<ele>1350</ele>
<time>2010-12-29T23:15:39Z</time>
</trkpt>
<trkpt lat="50.7785" lon="15.58132">
<ele>1368</ele>
<time>2010-12-29T23:16:14Z</time>
</trkpt>
<trkpt lat="50.7785" lon="15.58132">
<ele>1368</ele>
<time>2010-12-29T23:16:14Z</time>
</trkpt>
<trkpt lat="50.77895" lon="15.57894">
<ele>1399</ele>
<time>2010-12-29T23:16:35Z</time>
</trkpt>
<trkpt lat="50.77895" lon="15.57894">
<ele>1399</ele>
<time>2010-12-29T23:16:35Z</time>
</trkpt>
<trkpt lat="50.77913" lon="15.5781">
<ele>1403</ele>
<time>2010-12-29T23:16:42Z</time>
</trkpt>
<trkpt lat="50.77913" lon="15.5781">
<ele>1403</ele>
<time>2010-12-29T23:16:42Z</time>
</trkpt>
<trkpt lat="50.77857" lon="15.57589">
<ele>1391</ele>
<time>2010-12-29T23:17:02Z</time>
</trkpt>
<trkpt lat="50.77857" lon="15.57589">
<ele>1391</ele>
<time>2010-12-29T23:17:02Z</time>
</trkpt>
<trkpt lat="50.77849" lon="15.57521">
<ele>1389</ele>
<time>2010-12-29T23:17:08Z</time>
</trkpt>
<trkpt lat="50.77849" lon="15.57521">
<ele>1389</ele>
<time>2010-12-29T23:17:08Z</time>
</trkpt>
<trkpt lat="50.77863" lon="15.57192">
<ele>1392</ele>
<time>2010-12-29T23:17:36Z</time>
</trkpt>
<trkpt lat="50.77863" lon="15.57192">
<ele>1392</ele>
<time>2010-12-29T23:17:36Z</time>
</trkpt>
<trkpt lat="50.77857" lon="15.57145">
<ele>1398</ele>
<time>2010-12-29T23:17:40Z</time>
</trkpt>
<trkpt lat="50.77857" lon="15.57145">
<ele>1398</ele>
<time>2010-12-29T23:17:40Z</time>
</trkpt>
<trkpt lat="50.77841" lon="15.56767">
<ele>1446</ele>
<time>2010-12-29T23:18:12Z</time>
</trkpt>
<trkpt lat="50.77841" lon="15.56767">
<ele>1446</ele>
<time>2010-12-29T23:18:12Z</time>
</trkpt>
<trkpt lat="50.77829" lon="15.56684">
<ele>1456</ele>
<time>2010-12-29T23:18:19Z</time>
</trkpt>
<trkpt lat="50.77829" lon="15.56684">
<ele>1456</ele>
<time>2010-12-29T23:18:19Z</time>
</trkpt>
<trkpt lat="50.77796" lon="15.56577">
<ele>1469</ele>
<time>2010-12-29T23:18:29Z</time>
</trkpt>
<trkpt lat="50.77796" lon="15.56577">
<ele>1469</ele>
<time>2010-12-29T23:18:29Z</time>
</trkpt>
<trkpt lat="50.77792" lon="15.56493">
<ele>1465</ele>
<time>2010-12-29T23:18:36Z</time>
</trkpt>
<trkpt lat="50.77792" lon="15.56493">
<ele>1465</ele>
<time>2010-12-29T23:18:36Z</time>
</trkpt>
<trkpt lat="50.77715" lon="15.56338">
<ele>1476</ele>
<time>2010-12-29T23:18:53Z</time>
</trkpt>
<trkpt lat="50.77715" lon="15.56338">
<ele>1476</ele>
<time>2010-12-29T23:18:53Z</time>
</trkpt>
<trkpt lat="50.77664" lon="15.56259">
<ele>1483</ele>
<time>2010-12-29T23:19:02Z</time>
</trkpt>
<trkpt lat="50.77664" lon="15.56259">
<ele>1483</ele>
<time>2010-12-29T23:19:02Z</time>
</trkpt>
<trkpt lat="50.77701" lon="15.56145">
<ele>1469</ele>
<time>2010-12-29T23:19:13Z</time>
</trkpt>
<trkpt lat="50.77701" lon="15.56145">
<ele>1469</ele>
<time>2010-12-29T23:19:13Z</time>
</trkpt>
<trkpt lat="50.77671" lon="15.56027">
<ele>1476</ele>
<time>2010-12-29T23:19:24Z</time>
</trkpt>
<trkpt lat="50.77671" lon="15.56027">
<ele>1476</ele>
<time>2010-12-29T23:19:24Z</time>
</trkpt>
<trkpt lat="50.77686" lon="15.55877">
<ele>1475</ele>
<time>2010-12-29T23:19:37Z</time>
</trkpt>
<trkpt lat="50.77686" lon="15.55877">
<ele>1475</ele>
<time>2010-12-29T23:19:37Z</time>
</trkpt>
<trkpt lat="50.77778" lon="15.55781">
<ele>1476</ele>
<time>2010-12-29T23:19:51Z</time>
</trkpt>
<trkpt lat="50.77778" lon="15.55781">
<ele>1476</ele>
<time>2010-12-29T23:19:51Z</time>
</trkpt>
<trkpt lat="50.77838" lon="15.55768">
<ele>1472</ele>
<time>2010-12-29T23:19:59Z</time>
</trkpt>
<trkpt lat="50.77838" lon="15.55768">
<ele>1472</ele>
<time>2010-12-29T23:19:59Z</time>
</trkpt>
<trkpt lat="50.77902" lon="15.55688">
<ele>1480</ele>
<time>2010-12-29T23:20:10Z</time>
</trkpt>
<trkpt lat="50.77902" lon="15.55688">
<ele>1480</ele>
<time>2010-12-29T23:20:10Z</time>
</trkpt>
<trkpt lat="50.77971" lon="15.55373">
<ele>1478</ele>
<time>2010-12-29T23:20:38Z</time>
</trkpt>
<trkpt lat="50.77971" lon="15.55373">
<ele>1478</ele>
<time>2010-12-29T23:20:38Z</time>
</trkpt>
<trkpt lat="50.78168" lon="15.55113">
<ele>1458</ele>
<time>2010-12-29T23:21:13Z</time>
</trkpt>
<trkpt lat="50.78168" lon="15.55113">
<ele>1458</ele>
<time>2010-12-29T23:21:13Z</time>
</trkpt>
<trkpt lat="50.78176" lon="15.55042">
<ele>1452</ele>
<time>2010-12-29T23:21:19Z</time>
</trkpt>
<trkpt lat="50.78176" lon="15.55042">
<ele>1452</ele>
<time>2010-12-29T23:21:19Z</time>
</trkpt>
<trkpt lat="50.78122" lon="15.54753">
<ele>1438</ele>
<time>2010-12-29T23:21:44Z</time>
</trkpt>
<trkpt lat="50.78122" lon="15.54753">
<ele>1438</ele>
<time>2010-12-29T23:21:44Z</time>
</trkpt>
<trkpt lat="50.7823" lon="15.54439">
<ele>1405</ele>
<time>2010-12-29T23:22:14Z</time>
</trkpt>
<trkpt lat="50.7823" lon="15.54439">
<ele>1405</ele>
<time>2010-12-29T23:22:14Z</time>
</trkpt>
<trkpt lat="50.78291" lon="15.54042">
<ele>1352</ele>
<time>2010-12-29T23:22:49Z</time>
</trkpt>
<trkpt lat="50.78291" lon="15.54042">
<ele>1352</ele>
<time>2010-12-29T23:22:49Z</time>
</trkpt>
<trkpt lat="50.78351" lon="15.5377">
<ele>1314</ele>
<time>2010-12-29T23:23:13Z</time>
</trkpt>
<trkpt lat="50.78351" lon="15.5377">
<ele>1314</ele>
<time>2010-12-29T23:23:13Z</time>
</trkpt>
<trkpt lat="50.78483" lon="15.5368">
<ele>1262</ele>
<time>2010-12-29T23:23:32Z</time>
</trkpt>
<trkpt lat="50.78483" lon="15.5368">
<ele>1262</ele>
<time>2010-12-29T23:23:32Z</time>
</trkpt>
<trkpt lat="50.786275" lon="15.53693">
<ele>1212</ele>
<time>2010-12-29T23:23:52Z</time>
</trkpt>
<trkpt lat="50.78772" lon="15.53706">
<ele>1174</ele>
<time>2010-12-29T23:24:11Z</time>
</trkpt>
<trkpt lat="50.78772" lon="15.53706">
<ele>1174</ele>
<time>2010-12-29T23:24:11Z</time>
</trkpt>
<trkpt lat="50.78918" lon="15.5365">
<ele>1142</ele>
<time>2010-12-29T23:24:31Z</time>
</trkpt>
<trkpt lat="50.78918" lon="15.5365">
<ele>1142</ele>
<time>2010-12-29T23:24:31Z</time>
</trkpt>
<trkpt lat="50.79052" lon="15.53343">
<ele>1125</ele>
<time>2010-12-29T23:25:02Z</time>
</trkpt>
<trkpt lat="50.79052" lon="15.53343">
<ele>1125</ele>
<time>2010-12-29T23:25:02Z</time>
</trkpt>
<trkpt lat="50.7909" lon="15.53244">
<ele>1115</ele>
<time>2010-12-29T23:25:12Z</time>
</trkpt>
<trkpt lat="50.7909" lon="15.53244">
<ele>1115</ele>
<time>2010-12-29T23:25:12Z</time>
</trkpt>
<trkpt lat="50.79001" lon="15.53">
<ele>1115</ele>
<time>2010-12-29T23:25:36Z</time>
</trkpt>
<trkpt lat="50.79001" lon="15.53">
<ele>1115</ele>
<time>2010-12-29T23:25:36Z</time>
</trkpt>
<trkpt lat="50.79092" lon="15.52774">
<ele>1083</ele>
<time>2010-12-29T23:25:59Z</time>
</trkpt>
<trkpt lat="50.79092" lon="15.52774">
<ele>1083</ele>
<time>2010-12-29T23:25:59Z</time>
</trkpt>
<trkpt lat="50.79149" lon="15.52566">
<ele>1070</ele>
<time>2010-12-29T23:26:18Z</time>
</trkpt>
<trkpt lat="50.79149" lon="15.52566">
<ele>1070</ele>
<time>2010-12-29T23:26:18Z</time>
</trkpt>
<trkpt lat="50.79317" lon="15.526145">
<ele>1039</ele>
<time>2010-12-29T23:26:40Z</time>
</trkpt>
<trkpt lat="50.79485" lon="15.52663">
<ele>997</ele>
<time>2010-12-29T23:27:03Z</time>
</trkpt>
<trkpt lat="50.79485" lon="15.52663">
<ele>997</ele>
<time>2010-12-29T23:27:03Z</time>
</trkpt>
<trkpt lat="50.79703" lon="15.52779">
<ele>952</ele>
<time>2010-12-29T23:27:34Z</time>
</trkpt>
<trkpt lat="50.79703" lon="15.52779">
<ele>952</ele>
<time>2010-12-29T23:27:34Z</time>
</trkpt>
<trkpt lat="50.79843" lon="15.52796">
<ele>940</ele>
<time>2010-12-29T23:27:53Z</time>
</trkpt>
<trkpt lat="50.79983" lon="15.52813">
<ele>926</ele>
<time>2010-12-29T23:28:11Z</time>
</trkpt>
<trkpt lat="50.79983" lon="15.52813">
<ele>926</ele>
<time>2010-12-29T23:28:11Z</time>
</trkpt>
<trkpt lat="50.8006372" lon="15.527063">
<ele>930</ele>
<time>2010-12-29T23:28:25Z</time>
</trkpt>
<trkpt lat="50.8014443" lon="15.5259959">
<ele>927</ele>
<time>2010-12-29T23:28:39Z</time>
</trkpt>
<trkpt lat="50.8022515" lon="15.5249288">
<ele>923</ele>
<time>2010-12-29T23:28:53Z</time>
</trkpt>
<trkpt lat="50.8030586" lon="15.5238616">
<ele>910</ele>
<time>2010-12-29T23:29:08Z</time>
</trkpt>
<trkpt lat="50.8038658" lon="15.5227945">
<ele>900</ele>
<time>2010-12-29T23:29:22Z</time>
</trkpt>
<trkpt lat="50.8046729" lon="15.5217273">
<ele>894</ele>
<time>2010-12-29T23:29:36Z</time>
</trkpt>
<trkpt lat="50.80548" lon="15.52066">
<ele>890</ele>
<time>2010-12-29T23:29:50Z</time>
</trkpt>
<trkpt lat="50.80548" lon="15.52066">
<ele>890</ele>
<time>2010-12-29T23:29:50Z</time>
</trkpt>
<trkpt lat="50.80608" lon="15.52019">
<ele>882</ele>
<time>2010-12-29T23:29:59Z</time>
</trkpt>
<trkpt lat="50.80608" lon="15.52019">
<ele>882</ele>
<time>2010-12-29T23:29:59Z</time>
</trkpt>
<trkpt lat="50.80695" lon="15.51912">
<ele>875</ele>
<time>2010-12-29T23:30:13Z</time>
</trkpt>
<trkpt lat="50.80695" lon="15.51912">
<ele>875</ele>
<time>2010-12-29T23:30:13Z</time>
</trkpt>
<trkpt lat="50.80783" lon="15.51907">
<ele>857</ele>
<time>2010-12-29T23:30:25Z</time>
</trkpt>
<trkpt lat="50.80783" lon="15.51907">
<ele>857</ele>
<time>2010-12-29T23:30:25Z</time>
</trkpt>
<trkpt lat="50.80901" lon="15.51834">
<ele>841</ele>
<time>2010-12-29T23:30:42Z</time>
</trkpt>
<trkpt lat="50.80901" lon="15.51834">
<ele>841</ele>
<time>2010-12-29T23:30:42Z</time>
</trkpt>
<trkpt lat="50.81061" lon="15.51847">
<ele>815</ele>
<time>2010-12-29T23:31:03Z</time>
</trkpt>
<trkpt lat="50.81061" lon="15.51847">
<ele>815</ele>
<time>2010-12-29T23:31:03Z</time>
</trkpt>
<trkpt lat="50.81186" lon="15.51884">
<ele>799</ele>
<time>2010-12-29T23:31:20Z</time>
</trkpt>
<trkpt lat="50.81186" lon="15.51884">
<ele>799</ele>
<time>2010-12-29T23:31:20Z</time>
</trkpt>
<trkpt lat="50.81289" lon="15.51813">
<ele>784</ele>
<time>2010-12-29T23:31:35Z</time>
</trkpt>
<trkpt lat="50.81289" lon="15.51813">
<ele>784</ele>
<time>2010-12-29T23:31:35Z</time>
</trkpt>
<trkpt lat="50.8142" lon="15.51772">
<ele>765</ele>
<time>2010-12-29T23:31:53Z</time>
</trkpt>
<trkpt lat="50.8142" lon="15.51772">
<ele>765</ele>
<time>2010-12-29T23:31:53Z</time>
</trkpt>
<trkpt lat="50.81595" lon="15.51753">
<ele>738</ele>
<time>2010-12-29T23:32:16Z</time>
</trkpt>
<trkpt lat="50.81595" lon="15.51753">
<ele>738</ele>
<time>2010-12-29T23:32:16Z</time>
</trkpt>
<trkpt lat="50.81703" lon="15.51757">
<ele>723</ele>
<time>2010-12-29T23:32:31Z</time>
</trkpt>
<trkpt lat="50.81703" lon="15.51757">
<ele>723</ele>
<time>2010-12-29T23:32:31Z</time>
</trkpt>
<trkpt lat="50.81758" lon="15.51777">
<ele>715</ele>
<time>2010-12-29T23:32:38Z</time>
</trkpt>
<trkpt lat="50.81758" lon="15.51777">
<ele>715</ele>
<time>2010-12-29T23:32:38Z</time>
</trkpt>
<trkpt lat="50.81783" lon="15.51813">
<ele>710</ele>
<time>2010-12-29T23:32:43Z</time>
</trkpt>
<trkpt lat="50.81783" lon="15.51813">
<ele>710</ele>
<time>2010-12-29T23:32:43Z</time>
</trkpt>
<trkpt lat="50.81853" lon="15.518">
<ele>706</ele>
<time>2010-12-29T23:32:52Z</time>
</trkpt>
</trkseg>
</trk>
</gpx>
